sensor_id;sensor_type;location;lat;lon;timestamp;P1;durP1;ratioP1;P2;durP2;ratioP2
56321;SDS011;42227;6.376;-10.782;2022-09-29T00:01:14;9.52;;;4.15;;
56321;SDS011;42227;6.376;-10.782;2022-09-29T00:03:43;8.95;;;3.25;;
56321;SDS011;42227;6.376;-10.782;2022-09-29T00:06:15;6.20;;;2.17;;
56321;SDS011;42227;6.376;-10.782;2022-09-29T00:08:45;3.13;;;1.88;;
56321;SDS011;42227;6.376;-10.782;2022-09-29T00:11:15;9.38;;;2.78;;
56321;SDS011;42227;6.376;-10.782;2022-09-29T00:13:44;5.32;;;2.92;;
56321;SDS011;42227;6.376;-10.782;2022-09-29T00:16:14;9.40;;;3.38;;
56321;SDS011;42227;6.376;-10.782;2022-09-29T00:18:42;4.55;;;2.58;;
56321;SDS011;42227;6.376;-10.782;2022-09-29T00:21:12;10.23;;;5.60;;
56321;SDS011;42227;6.376;-10.782;2022-09-29T00:23:45;15.10;;;6.28;;
56321;SDS011;42227;6.376;-10.782;2022-09-29T00:26:23;10.13;;;4.35;;
56321;SDS011;42227;6.376;-10.782;2022-09-29T00:28:54;19.10;;;7.40;;
56321;SDS011;42227;6.376;-10.782;2022-09-29T00:31:25;6.30;;;3.85;;
56321;SDS011;42227;6.376;-10.782;2022-09-29T00:33:55;8.50;;;3.53;;
56321;SDS011;42227;6.376;-10.782;2022-09-29T00:36:24;14.05;;;3.40;;
56321;SDS011;42227;6.376;-10.782;2022-09-29T00:38:53;7.55;;;3.05;;
56321;SDS011;42227;6.376;-10.782;2022-09-29T00:41:28;11.05;;;4.03;;
56321;SDS011;42227;6.376;-10.782;2022-09-29T00:44:00;11.32;;;4.03;;
56321;SDS011;42227;6.376;-10.782;2022-09-29T00:46:37;16.67;;;5.32;;
56321;SDS011;42227;6.376;-10.782;2022-09-29T00:49:13;10.30;;;4.47;;
56321;SDS011;42227;6.376;-10.782;2022-09-29T00:51:53;17.05;;;4.68;;
56321;SDS011;42227;6.376;-10.782;2022-09-29T00:54:26;2.90;;;1.95;;
56321;SDS011;42227;6.376;-10.782;2022-09-29T00:56:59;5.03;;;2.03;;
56321;SDS011;42227;6.376;-10.782;2022-09-29T00:59:31;4.97;;;2.60;;
56321;SDS011;42227;6.376;-10.782;2022-09-29T01:02:14;8.05;;;2.72;;
56321;SDS011;42227;6.376;-10.782;2022-09-29T01:04:46;6.93;;;2.25;;
56321;SDS011;42227;6.376;-10.782;2022-09-29T01:07:17;7.80;;;2.70;;
56321;SDS011;42227;6.376;-10.782;2022-09-29T01:09:49;5.15;;;3.30;;
56321;SDS011;42227;6.376;-10.782;2022-09-29T01:12:19;3.58;;;2.47;;
56321;SDS011;42227;6.376;-10.782;2022-09-29T01:14:47;3.83;;;2.20;;
56321;SDS011;42227;6.376;-10.782;2022-09-29T01:17:17;4.43;;;2.53;;
56321;SDS011;42227;6.376;-10.782;2022-09-29T01:33:47;6.30;;;2.55;;
56321;SDS011;42227;6.376;-10.782;2022-09-29T01:36:57;5.97;;;2.42;;
56321;SDS011;42227;6.376;-10.782;2022-09-29T01:43:00;3.83;;;2.27;;
56321;SDS011;42227;6.376;-10.782;2022-09-29T01:45:32;8.73;;;3.20;;
56321;SDS011;42227;6.376;-10.782;2022-09-29T01:48:04;3.50;;;2.20;;
56321;SDS011;42227;6.376;-10.782;2022-09-29T01:50:39;3.58;;;2.42;;
56321;SDS011;42227;6.376;-10.782;2022-09-29T01:53:13;2.97;;;2.35;;
56321;SDS011;42227;6.376;-10.782;2022-09-29T01:55:53;7.90;;;3.00;;
56321;SDS011;42227;6.376;-10.782;2022-09-29T01:58:30;3.85;;;1.90;;
56321;SDS011;42227;6.376;-10.782;2022-09-29T02:01:20;8.18;;;2.55;;
56321;SDS011;42227;6.376;-10.782;2022-09-29T02:06:28;6.15;;;2.25;;
56321;SDS011;42227;6.376;-10.782;2022-09-29T02:09:01;13.55;;;3.13;;
56321;SDS011;42227;6.376;-10.782;2022-09-29T02:11:35;9.20;;;4.75;;
56321;SDS011;42227;6.376;-10.782;2022-09-29T02:16:42;6.28;;;3.13;;
56321;SDS011;42227;6.376;-10.782;2022-09-29T02:19:18;11.02;;;3.33;;
56321;SDS011;42227;6.376;-10.782;2022-09-29T02:21:48;9.25;;;3.00;;
56321;SDS011;42227;6.376;-10.782;2022-09-29T02:24:17;5.90;;;2.60;;
56321;SDS011;42227;6.376;-10.782;2022-09-29T02:26:45;15.52;;;4.20;;
56321;SDS011;42227;6.376;-10.782;2022-09-29T02:29:14;5.57;;;2.50;;
56321;SDS011;42227;6.376;-10.782;2022-09-29T02:31:44;9.52;;;2.30;;
56321;SDS011;42227;6.376;-10.782;2022-09-29T02:34:15;5.00;;;2.10;;
56321;SDS011;42227;6.376;-10.782;2022-09-29T02:56:24;12.05;;;4.63;;
56321;SDS011;42227;6.376;-10.782;2022-09-29T02:59:23;16.63;;;4.18;;
56321;SDS011;42227;6.376;-10.782;2022-09-29T03:02:07;9.82;;;5.10;;
56321;SDS011;42227;6.376;-10.782;2022-09-29T03:04:35;13.07;;;4.05;;
56321;SDS011;42227;6.376;-10.782;2022-09-29T03:07:03;8.50;;;3.70;;
56321;SDS011;42227;6.376;-10.782;2022-09-29T03:09:31;13.80;;;4.57;;
56321;SDS011;42227;6.376;-10.782;2022-09-29T03:11:59;15.05;;;4.28;;
56321;SDS011;42227;6.376;-10.782;2022-09-29T03:14:28;16.35;;;4.78;;
56321;SDS011;42227;6.376;-10.782;2022-09-29T03:16:56;15.27;;;3.88;;
56321;SDS011;42227;6.376;-10.782;2022-09-29T03:19:24;13.70;;;4.95;;
56321;SDS011;42227;6.376;-10.782;2022-09-29T03:21:52;9.50;;;5.00;;
56321;SDS011;42227;6.376;-10.782;2022-09-29T03:24:20;10.50;;;4.22;;
56321;SDS011;42227;6.376;-10.782;2022-09-29T03:26:49;5.90;;;2.65;;
56321;SDS011;42227;6.376;-10.782;2022-09-29T03:29:17;5.20;;;2.92;;
56321;SDS011;42227;6.376;-10.782;2022-09-29T03:31:45;7.80;;;2.70;;
56321;SDS011;42227;6.376;-10.782;2022-09-29T03:34:13;4.15;;;2.33;;
56321;SDS011;42227;6.376;-10.782;2022-09-29T03:36:41;5.80;;;2.47;;
56321;SDS011;42227;6.376;-10.782;2022-09-29T03:39:09;6.43;;;3.08;;
56321;SDS011;42227;6.376;-10.782;2022-09-29T03:41:38;11.10;;;4.07;;
56321;SDS011;42227;6.376;-10.782;2022-09-29T03:44:06;16.60;;;5.13;;
56321;SDS011;42227;6.376;-10.782;2022-09-29T03:46:34;19.45;;;6.07;;
56321;SDS011;42227;6.376;-10.782;2022-09-29T03:49:02;12.02;;;4.82;;
56321;SDS011;42227;6.376;-10.782;2022-09-29T03:51:30;14.98;;;8.02;;
56321;SDS011;42227;6.376;-10.782;2022-09-29T03:53:59;15.63;;;5.55;;
56321;SDS011;42227;6.376;-10.782;2022-09-29T03:56:27;14.25;;;5.50;;
56321;SDS011;42227;6.376;-10.782;2022-09-29T03:58:55;6.43;;;3.50;;
56321;SDS011;42227;6.376;-10.782;2022-09-29T04:01:24;7.03;;;3.92;;
56321;SDS011;42227;6.376;-10.782;2022-09-29T04:03:52;18.08;;;11.77;;
56321;SDS011;42227;6.376;-10.782;2022-09-29T04:06:20;19.70;;;13.90;;
56321;SDS011;42227;6.376;-10.782;2022-09-29T04:08:48;22.20;;;12.65;;
56321;SDS011;42227;6.376;-10.782;2022-09-29T04:11:16;17.25;;;8.63;;
56321;SDS011;42227;6.376;-10.782;2022-09-29T04:13:45;14.52;;;5.53;;
56321;SDS011;42227;6.376;-10.782;2022-09-29T04:16:13;14.20;;;3.38;;
56321;SDS011;42227;6.376;-10.782;2022-09-29T04:18:41;3.33;;;2.85;;
56321;SDS011;42227;6.376;-10.782;2022-09-29T04:21:10;4.70;;;3.08;;
56321;SDS011;42227;6.376;-10.782;2022-09-29T04:23:38;3.35;;;2.47;;
56321;SDS011;42227;6.376;-10.782;2022-09-29T04:26:06;3.50;;;2.55;;
56321;SDS011;42227;6.376;-10.782;2022-09-29T04:28:35;8.45;;;3.72;;
56321;SDS011;42227;6.376;-10.782;2022-09-29T04:31:04;7.82;;;3.95;;
56321;SDS011;42227;6.376;-10.782;2022-09-29T04:33:33;4.78;;;2.78;;
56321;SDS011;42227;6.376;-10.782;2022-09-29T04:36:02;10.35;;;3.70;;
56321;SDS011;42227;6.376;-10.782;2022-09-29T04:38:31;7.32;;;4.05;;
56321;SDS011;42227;6.376;-10.782;2022-09-29T04:41:00;5.60;;;3.05;;
56321;SDS011;42227;6.376;-10.782;2022-09-29T04:43:28;4.22;;;2.45;;
56321;SDS011;42227;6.376;-10.782;2022-09-29T04:46:00;11.45;;;3.55;;
56321;SDS011;42227;6.376;-10.782;2022-09-29T04:48:30;6.80;;;3.50;;
56321;SDS011;42227;6.376;-10.782;2022-09-29T04:55:06;16.27;;;4.88;;
56321;SDS011;42227;6.376;-10.782;2022-09-29T04:57:38;11.47;;;4.50;;
56321;SDS011;42227;6.376;-10.782;2022-09-29T05:00:10;11.95;;;5.60;;
56321;SDS011;42227;6.376;-10.782;2022-09-29T05:02:41;10.65;;;4.43;;
56321;SDS011;42227;6.376;-10.782;2022-09-29T05:05:16;5.38;;;4.55;;
56321;SDS011;42227;6.376;-10.782;2022-09-29T05:07:47;10.25;;;3.80;;
56321;SDS011;42227;6.376;-10.782;2022-09-29T05:10:17;13.32;;;4.80;;
56321;SDS011;42227;6.376;-10.782;2022-09-29T05:12:48;4.30;;;2.83;;
56321;SDS011;42227;6.376;-10.782;2022-09-29T05:15:18;9.93;;;3.72;;
56321;SDS011;42227;6.376;-10.782;2022-09-29T05:17:52;7.35;;;3.08;;
56321;SDS011;42227;6.376;-10.782;2022-09-29T05:20:22;5.68;;;3.08;;
56321;SDS011;42227;6.376;-10.782;2022-09-29T05:23:00;3.75;;;2.95;;
56321;SDS011;42227;6.376;-10.782;2022-09-29T05:25:31;6.25;;;4.20;;
56321;SDS011;42227;6.376;-10.782;2022-09-29T05:28:01;6.72;;;3.05;;
56321;SDS011;42227;6.376;-10.782;2022-09-29T05:30:31;5.28;;;2.47;;
56321;SDS011;42227;6.376;-10.782;2022-09-29T05:33:01;5.50;;;2.88;;
56321;SDS011;42227;6.376;-10.782;2022-09-29T05:35:32;6.32;;;2.85;;
56321;SDS011;42227;6.376;-10.782;2022-09-29T05:38:02;5.35;;;3.15;;
56321;SDS011;42227;6.376;-10.782;2022-09-29T05:40:32;9.80;;;4.20;;
56321;SDS011;42227;6.376;-10.782;2022-09-29T05:43:04;8.40;;;4.90;;
56321;SDS011;42227;6.376;-10.782;2022-09-29T05:45:35;11.50;;;6.45;;
56321;SDS011;42227;6.376;-10.782;2022-09-29T05:48:05;15.32;;;8.15;;
56321;SDS011;42227;6.376;-10.782;2022-09-29T05:50:35;11.00;;;7.35;;
56321;SDS011;42227;6.376;-10.782;2022-09-29T05:53:06;12.05;;;9.45;;
56321;SDS011;42227;6.376;-10.782;2022-09-29T05:55:37;13.32;;;9.23;;
56321;SDS011;42227;6.376;-10.782;2022-09-29T05:58:07;16.88;;;12.13;;
56321;SDS011;42227;6.376;-10.782;2022-09-29T06:00:37;22.95;;;13.73;;
56321;SDS011;42227;6.376;-10.782;2022-09-29T06:03:08;12.10;;;10.00;;
56321;SDS011;42227;6.376;-10.782;2022-09-29T06:05:38;14.32;;;7.50;;
56321;SDS011;42227;6.376;-10.782;2022-09-29T06:08:09;12.77;;;6.07;;
56321;SDS011;42227;6.376;-10.782;2022-09-29T06:10:39;11.10;;;5.60;;
56321;SDS011;42227;6.376;-10.782;2022-09-29T06:13:09;8.23;;;4.07;;
56321;SDS011;42227;6.376;-10.782;2022-09-29T06:15:39;7.70;;;5.07;;
56321;SDS011;42227;6.376;-10.782;2022-09-29T06:18:09;9.43;;;5.47;;
56321;SDS011;42227;6.376;-10.782;2022-09-29T06:20:40;9.45;;;4.57;;
56321;SDS011;42227;6.376;-10.782;2022-09-29T06:23:10;11.23;;;4.60;;
56321;SDS011;42227;6.376;-10.782;2022-09-29T06:25:40;9.65;;;4.28;;
56321;SDS011;42227;6.376;-10.782;2022-09-29T06:28:10;17.60;;;5.38;;
56321;SDS011;42227;6.376;-10.782;2022-09-29T06:30:41;6.97;;;4.95;;
56321;SDS011;42227;6.376;-10.782;2022-09-29T06:33:11;10.50;;;6.40;;
56321;SDS011;42227;6.376;-10.782;2022-09-29T06:35:45;7.03;;;5.93;;
56321;SDS011;42227;6.376;-10.782;2022-09-29T06:38:16;16.38;;;5.63;;
56321;SDS011;42227;6.376;-10.782;2022-09-29T06:40:46;13.40;;;5.03;;
56321;SDS011;42227;6.376;-10.782;2022-09-29T06:43:17;6.43;;;4.22;;
56321;SDS011;42227;6.376;-10.782;2022-09-29T06:45:47;11.65;;;5.90;;
56321;SDS011;42227;6.376;-10.782;2022-09-29T06:48:17;38.85;;;19.25;;
56321;SDS011;42227;6.376;-10.782;2022-09-29T06:50:48;39.60;;;24.40;;
56321;SDS011;42227;6.376;-10.782;2022-09-29T06:53:34;61.55;;;28.27;;
56321;SDS011;42227;6.376;-10.782;2022-09-29T06:56:06;41.00;;;24.07;;
56321;SDS011;42227;6.376;-10.782;2022-09-29T06:58:37;56.08;;;30.00;;
56321;SDS011;42227;6.376;-10.782;2022-09-29T07:01:08;39.92;;;20.17;;
56321;SDS011;42227;6.376;-10.782;2022-09-29T07:03:39;40.53;;;17.93;;
56321;SDS011;42227;6.376;-10.782;2022-09-29T07:06:09;32.60;;;14.88;;
56321;SDS011;42227;6.376;-10.782;2022-09-29T07:08:47;19.73;;;10.57;;
56321;SDS011;42227;6.376;-10.782;2022-09-29T07:11:22;14.10;;;8.02;;
56321;SDS011;42227;6.376;-10.782;2022-09-29T07:13:53;10.68;;;8.32;;
56321;SDS011;42227;6.376;-10.782;2022-09-29T07:16:23;9.65;;;6.38;;
56321;SDS011;42227;6.376;-10.782;2022-09-29T07:18:54;8.25;;;5.20;;
56321;SDS011;42227;6.376;-10.782;2022-09-29T07:21:24;9.27;;;5.25;;
56321;SDS011;42227;6.376;-10.782;2022-09-29T07:23:54;8.50;;;4.53;;
56321;SDS011;42227;6.376;-10.782;2022-09-29T07:26:29;8.25;;;3.60;;
56321;SDS011;42227;6.376;-10.782;2022-09-29T07:28:59;10.15;;;4.70;;
56321;SDS011;42227;6.376;-10.782;2022-09-29T07:31:29;10.60;;;3.60;;
56321;SDS011;42227;6.376;-10.782;2022-09-29T07:34:14;9.82;;;4.05;;
56321;SDS011;42227;6.376;-10.782;2022-09-29T07:36:44;6.15;;;4.07;;
56321;SDS011;42227;6.376;-10.782;2022-09-29T07:39:14;6.80;;;5.03;;
56321;SDS011;42227;6.376;-10.782;2022-09-29T07:41:46;7.72;;;3.97;;
56321;SDS011;42227;6.376;-10.782;2022-09-29T07:44:16;10.00;;;4.45;;
56321;SDS011;42227;6.376;-10.782;2022-09-29T07:46:47;4.53;;;3.85;;
56321;SDS011;42227;6.376;-10.782;2022-09-29T07:49:18;7.95;;;4.07;;
56321;SDS011;42227;6.376;-10.782;2022-09-29T07:51:48;8.10;;;4.32;;
56321;SDS011;42227;6.376;-10.782;2022-09-29T07:54:18;10.48;;;4.63;;
56321;SDS011;42227;6.376;-10.782;2022-09-29T07:56:55;7.95;;;5.97;;
56321;SDS011;42227;6.376;-10.782;2022-09-29T07:59:26;13.73;;;7.60;;
56321;SDS011;42227;6.376;-10.782;2022-09-29T08:01:56;9.25;;;6.72;;
56321;SDS011;42227;6.376;-10.782;2022-09-29T08:04:28;7.90;;;5.97;;
56321;SDS011;42227;6.376;-10.782;2022-09-29T08:06:58;16.17;;;7.68;;
56321;SDS011;42227;6.376;-10.782;2022-09-29T08:09:29;13.05;;;7.85;;
56321;SDS011;42227;6.376;-10.782;2022-09-29T08:12:07;13.57;;;8.45;;
56321;SDS011;42227;6.376;-10.782;2022-09-29T08:14:39;7.90;;;6.88;;
56321;SDS011;42227;6.376;-10.782;2022-09-29T08:17:14;8.95;;;6.65;;
56321;SDS011;42227;6.376;-10.782;2022-09-29T08:19:45;10.10;;;6.30;;
56321;SDS011;42227;6.376;-10.782;2022-09-29T08:22:15;9.85;;;6.28;;
56321;SDS011;42227;6.376;-10.782;2022-09-29T08:24:46;12.93;;;6.28;;
56321;SDS011;42227;6.376;-10.782;2022-09-29T08:27:17;11.00;;;6.78;;
56321;SDS011;42227;6.376;-10.782;2022-09-29T08:29:51;7.93;;;5.80;;
56321;SDS011;42227;6.376;-10.782;2022-09-29T08:32:23;5.22;;;2.97;;
56321;SDS011;42227;6.376;-10.782;2022-09-29T08:34:51;4.70;;;3.08;;
56321;SDS011;42227;6.376;-10.782;2022-09-29T08:37:20;5.75;;;3.38;;
56321;SDS011;42227;6.376;-10.782;2022-09-29T08:39:48;9.02;;;3.47;;
56321;SDS011;42227;6.376;-10.782;2022-09-29T08:45:30;8.43;;;3.53;;
56321;SDS011;42227;6.376;-10.782;2022-09-29T08:48:07;5.10;;;3.90;;
56321;SDS011;42227;6.376;-10.782;2022-09-29T08:51:01;5.07;;;3.40;;
56321;SDS011;42227;6.376;-10.782;2022-09-29T08:53:41;6.22;;;3.45;;
56321;SDS011;42227;6.376;-10.782;2022-09-29T08:56:28;3.58;;;2.47;;
56321;SDS011;42227;6.376;-10.782;2022-09-29T08:58:57;3.75;;;3.00;;
56321;SDS011;42227;6.376;-10.782;2022-09-29T09:09:39;5.32;;;2.88;;
56321;SDS011;42227;6.376;-10.782;2022-09-29T09:14:43;4.55;;;2.40;;
56321;SDS011;42227;6.376;-10.782;2022-09-29T09:17:38;7.25;;;2.42;;
56321;SDS011;42227;6.376;-10.782;2022-09-29T09:26:03;5.18;;;2.60;;
56321;SDS011;42227;6.376;-10.782;2022-09-29T09:28:36;2.08;;;1.40;;
56321;SDS011;42227;6.376;-10.782;2022-09-29T09:31:17;5.32;;;3.00;;
56321;SDS011;42227;6.376;-10.782;2022-09-29T09:33:56;4.30;;;2.10;;
56321;SDS011;42227;6.376;-10.782;2022-09-29T09:39:47;4.57;;;3.35;;
56321;SDS011;42227;6.376;-10.782;2022-09-29T09:42:28;3.78;;;2.60;;
56321;SDS011;42227;6.376;-10.782;2022-09-29T09:45:04;9.13;;;3.08;;
56321;SDS011;42227;6.376;-10.782;2022-09-29T09:47:37;6.45;;;3.28;;
56321;SDS011;42227;6.376;-10.782;2022-09-29T09:50:22;7.40;;;2.90;;
56321;SDS011;42227;6.376;-10.782;2022-09-29T09:52:59;5.18;;;3.90;;
56321;SDS011;42227;6.376;-10.782;2022-09-29T09:55:36;10.15;;;4.93;;
56321;SDS011;42227;6.376;-10.782;2022-09-29T10:01:02;10.85;;;5.82;;
56321;SDS011;42227;6.376;-10.782;2022-09-29T10:03:32;23.67;;;8.38;;
56321;SDS011;42227;6.376;-10.782;2022-09-29T10:06:05;10.80;;;5.47;;
56321;SDS011;42227;6.376;-10.782;2022-09-29T10:08:37;7.10;;;6.20;;
56321;SDS011;42227;6.376;-10.782;2022-09-29T10:11:24;8.80;;;5.72;;
56321;SDS011;42227;6.376;-10.782;2022-09-29T10:14:03;10.52;;;7.00;;
56321;SDS011;42227;6.376;-10.782;2022-09-29T10:16:43;7.70;;;6.68;;
56321;SDS011;42227;6.376;-10.782;2022-09-29T10:22:19;12.27;;;7.15;;
56321;SDS011;42227;6.376;-10.782;2022-09-29T10:24:50;15.30;;;7.32;;
56321;SDS011;42227;6.376;-10.782;2022-09-29T10:27:20;12.57;;;6.68;;
56321;SDS011;42227;6.376;-10.782;2022-09-29T10:29:51;10.25;;;7.10;;
56321;SDS011;42227;6.376;-10.782;2022-09-29T10:32:26;9.27;;;5.60;;
56321;SDS011;42227;6.376;-10.782;2022-09-29T10:35:08;8.68;;;4.85;;
56321;SDS011;42227;6.376;-10.782;2022-09-29T10:38:05;15.25;;;6.43;;
56321;SDS011;42227;6.376;-10.782;2022-09-29T10:41:06;7.40;;;5.70;;
56321;SDS011;42227;6.376;-10.782;2022-09-29T10:43:38;8.65;;;5.63;;
56321;SDS011;42227;6.376;-10.782;2022-09-29T10:49:19;5.50;;;3.80;;
56321;SDS011;42227;6.376;-10.782;2022-09-29T10:51:53;3.72;;;2.70;;
56321;SDS011;42227;6.376;-10.782;2022-09-29T10:54:33;4.55;;;2.88;;
56321;SDS011;42227;6.376;-10.782;2022-09-29T10:57:13;4.47;;;3.50;;
56321;SDS011;42227;6.376;-10.782;2022-09-29T10:59:49;9.63;;;2.60;;
56321;SDS011;42227;6.376;-10.782;2022-09-29T11:02:29;9.10;;;2.83;;
56321;SDS011;42227;6.376;-10.782;2022-09-29T11:05:04;2.53;;;2.10;;
56321;SDS011;42227;6.376;-10.782;2022-09-29T11:07:50;3.58;;;2.72;;
56321;SDS011;42227;6.376;-10.782;2022-09-29T11:15:51;5.03;;;2.75;;
56321;SDS011;42227;6.376;-10.782;2022-09-29T11:18:24;5.55;;;2.47;;
56321;SDS011;42227;6.376;-10.782;2022-09-29T11:26:35;2.80;;;2.10;;
56321;SDS011;42227;6.376;-10.782;2022-09-29T11:32:13;4.57;;;2.17;;
56321;SDS011;42227;6.376;-10.782;2022-09-29T11:37:36;2.58;;;1.90;;
56321;SDS011;42227;6.376;-10.782;2022-09-29T11:46:05;6.18;;;2.83;;
56321;SDS011;42227;6.376;-10.782;2022-09-29T12:00:48;3.25;;;2.28;;
56321;SDS011;42227;6.376;-10.782;2022-09-29T12:03:45;5.57;;;3.08;;
56321;SDS011;42227;6.376;-10.782;2022-09-29T12:06:26;2.20;;;1.65;;
56321;SDS011;42227;6.376;-10.782;2022-09-29T12:12:22;2.20;;;2.00;;
56321;SDS011;42227;6.376;-10.782;2022-09-29T12:17:40;4.20;;;2.67;;
56321;SDS011;42227;6.376;-10.782;2022-09-29T12:23:12;12.15;;;2.13;;
56321;SDS011;42227;6.376;-10.782;2022-09-29T12:26:06;6.18;;;1.70;;
56321;SDS011;42227;6.376;-10.782;2022-09-29T12:28:37;7.13;;;2.53;;
56321;SDS011;42227;6.376;-10.782;2022-09-29T12:31:27;7.75;;;2.83;;
56321;SDS011;42227;6.376;-10.782;2022-09-29T12:34:11;3.15;;;2.08;;
56321;SDS011;42227;6.376;-10.782;2022-09-29T12:36:46;4.43;;;2.35;;
56321;SDS011;42227;6.376;-10.782;2022-09-29T12:40:09;5.93;;;2.58;;
56321;SDS011;42227;6.376;-10.782;2022-09-29T12:49:01;5.95;;;1.65;;
56321;SDS011;42227;6.376;-10.782;2022-09-29T12:51:41;4.30;;;2.42;;
56321;SDS011;42227;6.376;-10.782;2022-09-29T12:54:17;3.70;;;2.63;;
56321;SDS011;42227;6.376;-10.782;2022-09-29T12:56:55;3.13;;;2.08;;
56321;SDS011;42227;6.376;-10.782;2022-09-29T13:08:05;3.42;;;2.10;;
56321;SDS011;42227;6.376;-10.782;2022-09-29T13:28:17;10.32;;;1.60;;
56321;SDS011;42227;6.376;-10.782;2022-09-29T13:30:56;2.67;;;1.80;;
56321;SDS011;42227;6.376;-10.782;2022-09-29T13:33:33;6.72;;;3.58;;
56321;SDS011;42227;6.376;-10.782;2022-09-29T13:36:02;3.45;;;2.10;;
56321;SDS011;42227;6.376;-10.782;2022-09-29T13:38:32;9.48;;;3.50;;
56321;SDS011;42227;6.376;-10.782;2022-09-29T13:41:31;5.15;;;2.78;;
56321;SDS011;42227;6.376;-10.782;2022-09-29T13:44:03;7.18;;;1.95;;
56321;SDS011;42227;6.376;-10.782;2022-09-29T13:46:49;10.43;;;5.00;;
56321;SDS011;42227;6.376;-10.782;2022-09-29T13:49:26;7.65;;;1.90;;
56321;SDS011;42227;6.376;-10.782;2022-09-29T14:01:10;5.80;;;3.08;;
56321;SDS011;42227;6.376;-10.782;2022-09-29T14:03:55;10.32;;;4.15;;
56321;SDS011;42227;6.376;-10.782;2022-09-29T14:06:24;3.00;;;2.55;;
56321;SDS011;42227;6.376;-10.782;2022-09-29T14:09:16;4.32;;;2.63;;
56321;SDS011;42227;6.376;-10.782;2022-09-29T14:11:48;9.50;;;2.92;;
56321;SDS011;42227;6.376;-10.782;2022-09-29T14:14:24;4.70;;;2.38;;
56321;SDS011;42227;6.376;-10.782;2022-09-29T14:17:16;5.40;;;2.45;;
56321;SDS011;42227;6.376;-10.782;2022-09-29T14:22:59;6.18;;;2.50;;
56321;SDS011;42227;6.376;-10.782;2022-09-29T14:28:12;9.77;;;3.30;;
56321;SDS011;42227;6.376;-10.782;2022-09-29T14:30:50;13.85;;;5.22;;
56321;SDS011;42227;6.376;-10.782;2022-09-29T14:43:41;7.03;;;3.58;;
56321;SDS011;42227;6.376;-10.782;2022-09-29T14:58:29;5.45;;;2.85;;
56321;SDS011;42227;6.376;-10.782;2022-09-29T15:01:30;3.92;;;1.85;;
56321;SDS011;42227;6.376;-10.782;2022-09-29T15:04:08;4.00;;;2.35;;
56321;SDS011;42227;6.376;-10.782;2022-09-29T15:06:47;4.22;;;2.20;;
56321;SDS011;42227;6.376;-10.782;2022-09-29T15:09:20;3.92;;;1.90;;
56321;SDS011;42227;6.376;-10.782;2022-09-29T15:11:52;4.00;;;2.78;;
56321;SDS011;42227;6.376;-10.782;2022-09-29T15:14:28;7.32;;;3.30;;
56321;SDS011;42227;6.376;-10.782;2022-09-29T15:22:27;12.10;;;2.95;;
56321;SDS011;42227;6.376;-10.782;2022-09-29T15:30:17;5.65;;;2.55;;
56321;SDS011;42227;6.376;-10.782;2022-09-29T15:32:48;3.88;;;2.58;;
56321;SDS011;42227;6.376;-10.782;2022-09-29T15:35:21;2.85;;;1.95;;
56321;SDS011;42227;6.376;-10.782;2022-09-29T15:40:52;3.42;;;2.15;;
56321;SDS011;42227;6.376;-10.782;2022-09-29T15:43:23;1.60;;;1.50;;
56321;SDS011;42227;6.376;-10.782;2022-09-29T15:45:55;4.40;;;2.40;;
56321;SDS011;42227;6.376;-10.782;2022-09-29T15:48:29;3.17;;;2.30;;
56321;SDS011;42227;6.376;-10.782;2022-09-29T15:50:57;17.73;;;2.33;;
56321;SDS011;42227;6.376;-10.782;2022-09-29T15:53:25;13.07;;;4.05;;
56321;SDS011;42227;6.376;-10.782;2022-09-29T15:55:54;5.32;;;2.75;;
56321;SDS011;42227;6.376;-10.782;2022-09-29T16:00:58;12.10;;;3.25;;
56321;SDS011;42227;6.376;-10.782;2022-09-29T16:03:30;12.23;;;4.10;;
56321;SDS011;42227;6.376;-10.782;2022-09-29T16:06:05;6.15;;;2.67;;
56321;SDS011;42227;6.376;-10.782;2022-09-29T16:08:59;4.05;;;2.03;;
56321;SDS011;42227;6.376;-10.782;2022-09-29T16:11:30;13.05;;;3.22;;
56321;SDS011;42227;6.376;-10.782;2022-09-29T16:14:02;4.47;;;2.65;;
56321;SDS011;42227;6.376;-10.782;2022-09-29T16:16:44;5.13;;;3.25;;
56321;SDS011;42227;6.376;-10.782;2022-09-29T16:19:27;9.25;;;3.45;;
56321;SDS011;42227;6.376;-10.782;2022-09-29T16:22:02;8.15;;;2.42;;
56321;SDS011;42227;6.376;-10.782;2022-09-29T16:28:39;12.73;;;4.20;;
56321;SDS011;42227;6.376;-10.782;2022-09-29T16:31:30;3.88;;;2.55;;
56321;SDS011;42227;6.376;-10.782;2022-09-29T16:34:02;5.03;;;2.95;;
56321;SDS011;42227;6.376;-10.782;2022-09-29T16:39:08;11.07;;;3.22;;
56321;SDS011;42227;6.376;-10.782;2022-09-29T16:41:47;14.18;;;3.67;;
56321;SDS011;42227;6.376;-10.782;2022-09-29T16:44:27;5.45;;;2.65;;
56321;SDS011;42227;6.376;-10.782;2022-09-29T16:47:18;4.32;;;2.78;;
56321;SDS011;42227;6.376;-10.782;2022-09-29T16:49:54;9.82;;;3.53;;
56321;SDS011;42227;6.376;-10.782;2022-09-29T16:55:30;9.85;;;4.60;;
56321;SDS011;42227;6.376;-10.782;2022-09-29T16:58:11;5.47;;;3.88;;
56321;SDS011;42227;6.376;-10.782;2022-09-29T17:00:45;14.75;;;3.05;;
56321;SDS011;42227;6.376;-10.782;2022-09-29T17:03:16;11.85;;;3.05;;
56321;SDS011;42227;6.376;-10.782;2022-09-29T17:05:48;6.03;;;2.80;;
56321;SDS011;42227;6.376;-10.782;2022-09-29T17:08:24;7.80;;;3.55;;
56321;SDS011;42227;6.376;-10.782;2022-09-29T17:10:59;13.38;;;5.15;;
56321;SDS011;42227;6.376;-10.782;2022-09-29T17:13:31;5.95;;;3.05;;
56321;SDS011;42227;6.376;-10.782;2022-09-29T17:16:02;7.20;;;3.33;;
56321;SDS011;42227;6.376;-10.782;2022-09-29T17:18:33;5.10;;;3.30;;
56321;SDS011;42227;6.376;-10.782;2022-09-29T17:25:05;10.05;;;2.83;;
56321;SDS011;42227;6.376;-10.782;2022-09-29T17:27:37;6.07;;;3.35;;
56321;SDS011;42227;6.376;-10.782;2022-09-29T17:30:08;9.25;;;3.80;;
56321;SDS011;42227;6.376;-10.782;2022-09-29T17:32:43;7.22;;;4.35;;
56321;SDS011;42227;6.376;-10.782;2022-09-29T17:35:14;9.02;;;2.95;;
56321;SDS011;42227;6.376;-10.782;2022-09-29T17:37:46;3.95;;;2.45;;
56321;SDS011;42227;6.376;-10.782;2022-09-29T17:40:59;10.85;;;3.00;;
56321;SDS011;42227;6.376;-10.782;2022-09-29T17:45:59;8.68;;;4.28;;
56321;SDS011;42227;6.376;-10.782;2022-09-29T17:48:28;10.88;;;4.72;;
56321;SDS011;42227;6.376;-10.782;2022-09-29T17:50:57;7.13;;;3.38;;
56321;SDS011;42227;6.376;-10.782;2022-09-29T17:53:25;8.65;;;3.47;;
56321;SDS011;42227;6.376;-10.782;2022-09-29T17:55:55;7.05;;;3.35;;
56321;SDS011;42227;6.376;-10.782;2022-09-29T17:58:24;4.32;;;2.70;;
56321;SDS011;42227;6.376;-10.782;2022-09-29T18:00:53;5.78;;;3.75;;
56321;SDS011;42227;6.376;-10.782;2022-09-29T18:03:22;13.82;;;4.75;;
56321;SDS011;42227;6.376;-10.782;2022-09-29T18:05:52;14.50;;;4.22;;
56321;SDS011;42227;6.376;-10.782;2022-09-29T18:08:22;9.63;;;4.88;;
56321;SDS011;42227;6.376;-10.782;2022-09-29T18:10:56;10.48;;;5.47;;
56321;SDS011;42227;6.376;-10.782;2022-09-29T18:13:29;10.65;;;6.47;;
56321;SDS011;42227;6.376;-10.782;2022-09-29T18:15:58;10.52;;;5.88;;
56321;SDS011;42227;6.376;-10.782;2022-09-29T18:18:27;5.80;;;3.58;;
56321;SDS011;42227;6.376;-10.782;2022-09-29T18:20:55;15.48;;;4.50;;
56321;SDS011;42227;6.376;-10.782;2022-09-29T18:23:23;7.30;;;4.68;;
56321;SDS011;42227;6.376;-10.782;2022-09-29T18:25:51;9.98;;;5.05;;
56321;SDS011;42227;6.376;-10.782;2022-09-29T18:28:20;12.25;;;6.05;;
56321;SDS011;42227;6.376;-10.782;2022-09-29T18:30:49;10.55;;;5.30;;
56321;SDS011;42227;6.376;-10.782;2022-09-29T18:33:21;7.22;;;4.30;;
56321;SDS011;42227;6.376;-10.782;2022-09-29T18:35:50;15.60;;;5.80;;
56321;SDS011;42227;6.376;-10.782;2022-09-29T18:38:20;12.02;;;6.35;;
56321;SDS011;42227;6.376;-10.782;2022-09-29T18:40:50;9.88;;;5.03;;
56321;SDS011;42227;6.376;-10.782;2022-09-29T18:43:19;11.40;;;6.65;;
56321;SDS011;42227;6.376;-10.782;2022-09-29T18:45:47;8.82;;;5.45;;
56321;SDS011;42227;6.376;-10.782;2022-09-29T18:48:16;8.77;;;5.80;;
56321;SDS011;42227;6.376;-10.782;2022-09-29T18:50:48;7.55;;;5.20;;